Time;durP1;ratioP1;P1;durP2;ratioP2;P2;SDS_P1;SDS_P2;PMS_P1;PMS_P2;Temp;Humidity;BMP_temperature;BMP_pressure;BME280_temperature;BME280_humidity;BME280_pressure;Samples;Min_cycle;Max_cycle;Signal;HPM_P1;HPM_P2
2023/08/27 00:01:19;;;;;;;6.22;4.63;;;14.50;99.90;;;;;;5019271;28;20042;-70
2023/08/27 00:03:45;;;;;;;6.10;4.35;;;14.50;99.90;;;;;;5020472;28;20203;-70
2023/08/27 00:06:10;;;;;;;5.43;4.05;;;14.50;99.90;;;;;;5023547;28;20406;-70
2023/08/27 00:08:36;;;;;;;10.73;4.70;;;14.50;99.90;;;;;;5025250;28;20054;-70
2023/08/27 00:11:04;;;;;;;6.82;4.38;;;14.50;99.90;;;;;;5019567;28;20045;-70
2023/08/27 00:13:30;;;;;;;7.80;4.82;;;14.50;99.90;;;;;;5018684;28;20053;-70
2023/08/27 00:15:56;;;;;;;;;;;14.40;99.90;;;;;;5019732;28;20538;-70
2023/08/27 00:18:22;;;;;;;6.75;4.57;;;14.40;99.90;;;;;;5021163;28;19964;-70
2023/08/27 00:20:48;;;;;;;6.28;4.65;;;14.40;99.90;;;;;;5022978;28;20069;-70
2023/08/27 00:23:17;;;;;;;9.70;4.85;;;14.40;99.90;;;;;;5024771;28;20506;-70
2023/08/27 00:25:44;;;;;;;6.93;5.15;;;14.40;99.90;;;;;;5005456;28;20222;-70
2023/08/27 00:28:15;;;;;;;;;;;14.50;99.90;;;;;;5026481;28;20084;-70
2023/08/27 00:30:41;;;;;;;5.90;4.30;;;14.50;99.90;;;;;;5034355;28;20051;-70
2023/08/27 00:33:07;;;;;;;8.18;4.90;;;14.40;99.90;;;;;;5026651;28;20053;-71
2023/08/27 00:35:33;;;;;;;8.32;4.72;;;14.40;99.90;;;;;;5021313;28;20047;-71
2023/08/27 00:37:59;;;;;;;6.63;4.85;;;14.40;99.90;;;;;;5021641;28;20045;-71
2023/08/27 00:40:28;;;;;;;8.75;5.93;;;14.40;99.90;;;;;;5012837;28;20052;-71
2023/08/27 00:42:55;;;;;;;7.18;5.28;;;14.40;99.90;;;;;;5023171;28;20055;-71
2023/08/27 00:45:21;;;;;;;9.82;5.53;;;14.30;99.90;;;;;;5020868;28;20069;-71
2023/08/27 00:47:47;;;;;;;5.95;4.72;;;14.40;99.90;;;;;;5025455;28;20076;-70
2023/08/27 00:50:13;;;;;;;7.03;4.72;;;14.40;99.90;;;;;;5018611;28;20187;-70
2023/08/27 00:52:39;;;;;;;8.52;5.53;;;14.40;99.90;;;;;;5025157;28;20057;-70
2023/08/27 00:55:05;;;;;;;8.35;5.72;;;14.40;99.90;;;;;;5029138;28;20602;-70
2023/08/27 00:57:31;;;;;;;9.05;6.05;;;14.40;99.90;;;;;;5039787;28;20079;-70
2023/08/27 00:59:57;;;;;;;;;;;14.40;99.90;;;;;;5023500;28;20042;-71
2023/08/27 01:02:24;;;;;;;6.85;4.70;;;14.40;99.90;;;;;;5021051;28;19963;-70
2023/08/27 01:04:50;;;;;;;;;;;14.40;99.90;;;;;;5025490;28;20041;-70
2023/08/27 01:07:51;;;;;;;8.55;5.57;;;14.40;99.90;;;;;;5005359;28;20492;-70
2023/08/27 01:10:30;;;;;;;8.95;5.35;;;14.40;99.90;;;;;;5001318;28;20053;-70
2023/08/27 01:13:08;;;;;;;7.50;5.43;;;14.40;99.90;;;;;;5035851;28;20115;-70
2023/08/27 01:15:35;;;;;;;9.05;5.32;;;14.40;99.90;;;;;;5022691;28;20064;-70
2023/08/27 01:18:03;;;;;;;11.32;5.43;;;14.40;99.90;;;;;;5020272;28;20034;-70
2023/08/27 01:20:29;;;;;;;6.75;4.68;;;14.30;99.90;;;;;;5022994;28;20069;-70
2023/08/27 01:22:55;;;;;;;8.13;5.30;;;14.40;99.90;;;;;;5024483;28;20095;-70
2023/08/27 01:25:32;;;;;;;6.90;5.13;;;14.40;99.90;;;;;;5018109;28;20502;-71
2023/08/27 01:28:07;;;;;;;7.57;5.30;;;14.40;99.90;;;;;;5020826;28;20045;-70
2023/08/27 01:30:43;;;;;;;7.20;4.13;;;14.40;99.90;;;;;;5020064;28;20103;-70
2023/08/27 01:33:23;;;;;;;7.10;5.45;;;14.40;99.90;;;;;;5033962;28;20142;-70
2023/08/27 01:35:49;;;;;;;7.68;5.25;;;14.40;99.90;;;;;;5020558;28;20099;-70
2023/08/27 01:38:15;;;;;;;6.95;5.15;;;14.40;99.90;;;;;;5028626;28;20045;-70
2023/08/27 01:40:40;;;;;;;7.63;5.45;;;14.40;99.90;;;;;;5025894;28;20053;-70
2023/08/27 01:43:06;;;;;;;6.28;4.82;;;14.30;99.90;;;;;;5023846;28;20055;-70
2023/08/27 01:45:32;;;;;;;5.00;4.03;;;14.30;99.90;;;;;;5024211;28;20049;-70
2023/08/27 01:47:58;;;;;;;7.20;4.90;;;14.30;99.90;;;;;;5021277;28;20042;-70
2023/08/27 01:50:23;;;;;;;9.00;4.97;;;14.30;99.90;;;;;;5026163;28;20460;-70
2023/08/27 01:52:49;;;;;;;7.75;5.03;;;14.30;99.90;;;;;;5024541;28;20129;-70
2023/08/27 01:55:15;;;;;;;6.40;4.97;;;14.30;99.90;;;;;;5019449;28;20087;-70
2023/08/27 01:57:41;;;;;;;5.82;4.30;;;14.30;99.90;;;;;;5019869;28;20074;-70
2023/08/27 02:00:08;;;;;;;7.82;4.80;;;14.30;99.90;;;;;;5020511;28;20041;-70
2023/08/27 02:02:36;;;;;;;7.03;5.13;;;14.30;99.90;;;;;;5024556;28;20059;-70
2023/08/27 02:05:06;;;;;;;7.25;4.65;;;14.30;99.90;;;;;;5021476;28;20446;-71
2023/08/27 02:07:34;;;;;;;8.52;5.55;;;14.30;99.90;;;;;;5017455;28;20487;-70
2023/08/27 02:10:00;;;;;;;8.32;5.13;;;14.30;99.90;;;;;;5018072;28;20049;-70
2023/08/27 02:12:26;;;;;;;8.27;5.13;;;14.30;99.90;;;;;;5019727;28;20041;-70
2023/08/27 02:14:52;;;;;;;9.48;5.38;;;14.30;99.90;;;;;;5020964;28;20053;-70
2023/08/27 02:17:18;;;;;;;9.25;5.82;;;14.30;99.90;;;;;;5022729;28;20504;-70
2023/08/27 02:19:43;;;;;;;7.75;5.72;;;14.30;99.90;;;;;;5024347;28;20034;-70
2023/08/27 02:22:09;;;;;;;8.57;5.05;;;14.30;99.90;;;;;;5022681;28;20041;-70
2023/08/27 02:24:35;;;;;;;9.77;5.40;;;14.30;99.90;;;;;;5016067;28;20474;-70
2023/08/27 02:27:00;;;;;;;8.75;5.13;;;14.20;99.90;;;;;;5013941;28;20038;-70
2023/08/27 02:29:26;;;;;;;9.73;5.60;;;14.20;99.90;;;;;;5023949;28;20052;-70
2023/08/27 02:31:52;;;;;;;8.60;5.90;;;14.20;99.90;;;;;;5024299;28;20048;-71
2023/08/27 02:34:17;;;;;;;6.03;4.35;;;14.20;99.90;;;;;;5020133;28;20553;-71
2023/08/27 02:36:43;;;;;;;8.77;5.32;;;14.10;99.90;;;;;;5021709;28;20046;-70
2023/08/27 02:39:09;;;;;;;9.98;5.47;;;14.10;99.90;;;;;;5022728;28;20049;-70
2023/08/27 02:41:34;;;;;;;8.15;5.00;;;14.10;99.90;;;;;;5031606;28;20154;-71
2023/08/27 02:44:00;;;;;;;7.63;4.95;;;14.10;99.90;;;;;;5043715;28;20037;-71
2023/08/27 02:46:25;;;;;;;7.15;4.47;;;14.10;99.90;;;;;;5026699;28;20053;-70
2023/08/27 02:48:51;;;;;;;7.60;4.95;;;14.00;99.90;;;;;;5023579;28;20496;-70
2023/08/27 02:51:17;;;;;;;7.40;4.80;;;14.10;99.90;;;;;;5026565;28;20038;-70
2023/08/27 02:53:42;;;;;;;6.85;5.05;;;14.10;99.90;;;;;;5023683;28;20129;-70
2023/08/27 02:56:08;;;;;;;6.75;5.07;;;14.10;99.90;;;;;;5027430;28;20038;-71
2023/08/27 02:58:34;;;;;;;9.43;5.03;;;14.10;99.90;;;;;;5027506;28;20053;-71
2023/08/27 03:00:59;;;;;;;8.48;5.35;;;14.00;99.90;;;;;;5023737;28;20298;-70
2023/08/27 03:03:25;;;;;;;9.80;4.88;;;14.00;99.90;;;;;;5023045;28;20064;-70
2023/08/27 03:05:51;;;;;;;5.63;4.32;;;14.00;99.90;;;;;;5023151;28;20525;-70
2023/08/27 03:08:16;;;;;;;6.35;4.80;;;14.00;99.90;;;;;;5022910;28;20151;-70
2023/08/27 03:10:42;;;;;;;8.98;4.95;;;14.00;99.90;;;;;;5026071;28;20041;-70
2023/08/27 03:13:08;;;;;;;9.57;5.13;;;14.00;99.90;;;;;;5026733;28;20041;-70
2023/08/27 03:15:34;;;;;;;8.27;4.93;;;14.00;99.90;;;;;;5027954;28;20041;-70
2023/08/27 03:17:59;;;;;;;9.75;5.60;;;14.00;99.90;;;;;;5028027;28;20049;-70
2023/08/27 03:20:25;;;;;;;7.97;5.05;;;14.00;99.90;;;;;;5028584;28;20629;-70
2023/08/27 03:22:51;;;;;;;8.30;5.22;;;14.00;99.90;;;;;;5024695;28;20459;-70
2023/08/27 03:25:16;;;;;;;8.45;5.25;;;14.00;99.90;;;;;;5028401;28;20060;-70
2023/08/27 03:27:42;;;;;;;6.45;4.85;;;14.00;99.90;;;;;;5031487;28;20064;-70
2023/08/27 03:30:08;;;;;;;6.68;4.93;;;14.00;99.90;;;;;;5023609;28;20165;-70
2023/08/27 03:32:35;;;;;;;8.32;5.28;;;14.10;99.90;;;;;;5023688;28;20050;-70
2023/08/27 03:35:01;;;;;;;8.95;5.00;;;14.10;99.90;;;;;;5020330;28;20499;-70
2023/08/27 03:37:26;;;;;;;7.55;5.13;;;14.10;99.90;;;;;;5028042;28;20037;-70
2023/08/27 03:39:52;;;;;;;12.00;4.78;;;14.10;99.90;;;;;;5026926;28;20081;-70
2023/08/27 03:42:18;;;;;;;7.20;5.22;;;14.10;99.90;;;;;;5026375;28;20041;-70
2023/08/27 03:44:43;;;;;;;6.68;4.30;;;14.10;99.90;;;;;;5025140;28;20135;-70
2023/08/27 03:47:09;;;;;;;8.95;5.10;;;14.10;99.90;;;;;;5024633;28;20392;-70
2023/08/27 03:49:34;;;;;;;6.38;5.03;;;14.10;99.90;;;;;;5026901;28;20055;-70
2023/08/27 03:52:00;;;;;;;7.10;5.50;;;14.10;99.90;;;;;;5025649;28;20048;-70
2023/08/27 03:54:27;;;;;;;7.60;4.78;;;14.10;99.90;;;;;;5026358;28;20045;-70
2023/08/27 03:56:53;;;;;;;6.90;5.05;;;14.10;99.90;;;;;;5027291;28;20099;-70
2023/08/27 03:59:19;;;;;;;8.00;4.90;;;14.10;99.90;;;;;;5026382;28;20083;-70
2023/08/27 04:01:44;;;;;;;7.13;4.75;;;14.20;99.90;;;;;;5016852;28;20138;-70
2023/08/27 04:04:10;;;;;;;8.45;5.28;;;14.10;99.90;;;;;;5025805;28;20167;-71
2023/08/27 04:06:36;;;;;;;6.60;4.85;;;14.20;99.90;;;;;;5027784;28;20041;-70
2023/08/27 04:09:01;;;;;;;8.65;5.50;;;14.20;99.90;;;;;;5027006;28;20064;-70
2023/08/27 04:11:27;;;;;;;9.20;5.70;;;14.20;99.90;;;;;;5027121;28;20084;-70
2023/08/27 04:13:53;;;;;;;6.70;5.07;;;14.20;99.90;;;;;;5021480;28;20045;-70
2023/08/27 04:16:18;;;;;;;10.45;5.88;;;14.20;99.90;;;;;;5019463;28;20046;-70
2023/08/27 04:18:44;;;;;;;8.13;5.70;;;14.20;99.90;;;;;;5024500;28;20073;-70
2023/08/27 04:21:10;;;;;;;8.02;5.75;;;14.20;99.90;;;;;;5017706;28;20065;-70
2023/08/27 04:23:36;;;;;;;9.25;5.60;;;14.20;99.90;;;;;;5019368;28;20042;-70
2023/08/27 04:26:03;;;;;;;6.78;4.65;;;14.20;99.90;;;;;;5026605;28;20169;-70
2023/08/27 04:28:31;;;;;;;8.23;5.35;;;14.20;99.90;;;;;;5038488;28;20442;-70
2023/08/27 04:30:57;;;;;;;7.75;5.20;;;14.20;99.90;;;;;;5022980;28;20083;-70
2023/08/27 04:33:23;;;;;;;6.32;4.85;;;14.20;99.90;;;;;;5022589;28;20045;-70
2023/08/27 04:35:52;;;;;;;8.45;5.43;;;14.20;99.90;;;;;;5027597;28;20045;-70
2023/08/27 04:38:19;;;;;;;7.97;5.70;;;14.10;99.90;;;;;;5025625;28;20048;-70
2023/08/27 04:40:50;;;;;;;8.85;5.53;;;14.10;99.90;;;;;;5021718;28;20383;-70
2023/08/27 04:43:16;;;;;;;7.15;5.45;;;14.10;99.90;;;;;;5020048;28;20041;-70
2023/08/27 04:45:42;;;;;;;6.53;4.68;;;14.10;99.90;;;;;;5024869;28;20411;-70
2023/08/27 04:48:08;;;;;;;9.50;5.53;;;14.00;99.90;;;;;;5029799;28;20037;-70
2023/08/27 04:50:34;;;;;;;7.32;5.18;;;14.10;99.90;;;;;;5023119;28;20085;-70
2023/08/27 04:53:00;;;;;;;7.93;5.18;;;14.10;99.90;;;;;;5025985;28;20250;-70
2023/08/27 04:55:26;;;;;;;9.40;4.82;;;14.10;99.90;;;;;;5026025;28;20116;-70
2023/08/27 04:57:52;;;;;;;8.82;5.65;;;14.00;99.90;;;;;;5028326;28;20037;-70
2023/08/27 05:00:21;;;;;;;7.25;5.18;;;14.10;99.90;;;;;;5024681;28;20048;-70
2023/08/27 05:02:48;;;;;;;6.75;4.88;;;14.10;99.90;;;;;;5025588;28;20104;-70
2023/08/27 05:05:14;;;;;;;6.65;4.75;;;14.10;99.90;;;;;;5025543;28;20100;-70
2023/08/27 05:07:40;;;;;;;8.57;4.85;;;14.10;99.90;;;;;;5021519;28;20124;-70
2023/08/27 05:10:06;;;;;;;7.28;4.75;;;14.10;99.90;;;;;;5023535;28;20121;-70
2023/08/27 05:12:32;;;;;;;;;;;14.20;99.90;;;;;;5025351;28;20440;-70
2023/08/27 05:14:57;;;;;;;11.25;5.35;;;14.10;99.90;;;;;;5021161;28;19928;-70
2023/08/27 05:17:23;;;;;;;8.02;5.20;;;14.20;99.90;;;;;;5020857;28;20056;-70
2023/08/27 05:19:49;;;;;;;9.35;5.25;;;14.20;99.90;;;;;;5023518;28;20051;-70
2023/08/27 05:22:15;;;;;;;8.85;5.10;;;14.30;99.90;;;;;;5026422;28;20132;-70
2023/08/27 05:24:41;;;;;;;9.05;4.97;;;14.30;99.90;;;;;;5024907;28;20208;-70
2023/08/27 05:27:06;;;;;;;7.07;4.80;;;14.30;99.90;;;;;;5026970;28;20488;-70
2023/08/27 05:29:33;;;;;;;6.50;4.60;;;14.30;99.90;;;;;;5026699;28;20045;-70
2023/08/27 05:31:58;;;;;;;8.25;5.85;;;14.30;99.90;;;;;;5026517;28;20041;-70
2023/08/27 05:34:25;;;;;;;7.88;4.97;;;14.30;99.90;;;;;;5005051;28;20169;-70
2023/08/27 05:36:51;;;;;;;11.23;5.35;;;14.30;99.90;;;;;;5022196;28;20080;-69
2023/08/27 05:39:17;;;;;;;7.57;5.40;;;14.40;99.90;;;;;;5019684;28;20073;-70
2023/08/27 05:41:42;;;;;;;8.43;5.53;;;14.40;99.90;;;;;;5024147;28;20547;-70
2023/08/27 05:44:08;;;;;;;8.73;4.78;;;14.40;99.90;;;;;;5024509;28;20041;-70
2023/08/27 05:46:34;;;;;;;8.70;5.13;;;14.40;99.90;;;;;;5018708;28;20408;-70
2023/08/27 05:49:00;;;;;;;8.35;5.03;;;14.50;99.90;;;;;;5026702;28;20120;-69
2023/08/27 05:51:26;;;;;;;7.78;4.97;;;14.50;99.90;;;;;;5022195;28;20050;-70
2023/08/27 05:53:52;;;;;;;6.03;4.50;;;14.50;99.90;;;;;;5022559;28;20053;-70
2023/08/27 05:56:18;;;;;;;7.00;4.35;;;14.50;99.90;;;;;;5024222;28;20136;-70
2023/08/27 05:58:44;;;;;;;8.68;4.80;;;14.50;99.90;;;;;;5021123;28;20681;-70
2023/08/27 06:01:09;;;;;;;7.75;4.90;;;14.50;99.90;;;;;;5040441;28;20045;-70
2023/08/27 06:03:35;;;;;;;8.10;4.40;;;14.50;99.90;;;;;;5023454;28;20099;-70
2023/08/27 06:06:01;;;;;;;9.57;4.15;;;14.60;99.90;;;;;;5026865;28;20238;-70
2023/08/27 06:08:26;;;;;;;6.82;4.28;;;14.60;99.90;;;;;;5042777;28;20080;-70
2023/08/27 06:10:52;;;;;;;5.90;4.23;;;14.60;99.90;;;;;;5025252;28;20041;-70
2023/08/27 06:13:18;;;;;;;9.02;4.68;;;14.70;99.90;;;;;;5029195;28;20591;-70
2023/08/27 06:15:44;;;;;;;5.30;3.90;;;14.70;99.90;;;;;;5026640;28;20418;-70
2023/08/27 06:18:10;;;;;;;6.15;4.10;;;14.70;99.90;;;;;;5017076;28;20282;-70
2023/08/27 06:20:35;;;;;;;11.25;4.88;;;14.70;99.90;;;;;;5026593;28;20525;-70
2023/08/27 06:23:04;;;;;;;7.47;4.13;;;14.70;99.90;;;;;;5029375;28;20033;-70
2023/08/27 06:25:33;;;;;;;8.15;4.00;;;14.80;99.90;;;;;;5039004;28;20096;-70
2023/08/27 06:27:59;;;;;;;6.25;4.28;;;14.80;99.90;;;;;;5024034;28;20436;-70
2023/08/27 06:30:24;;;;;;;8.73;4.63;;;14.90;99.90;;;;;;5028814;28;20375;-70
2023/08/27 06:32:50;;;;;;;6.93;4.53;;;14.90;99.90;;;;;;5027839;28;20059;-70
2023/08/27 06:35:16;;;;;;;7.57;4.50;;;14.90;99.90;;;;;;5029055;28;20046;-70
2023/08/27 06:37:42;;;;;;;7.82;3.90;;;14.90;99.90;;;;;;5027680;28;20056;-70
2023/08/27 06:40:08;;;;;;;8.38;4.80;;;14.90;99.90;;;;;;5024062;28;20384;-70
2023/08/27 06:42:34;;;;;;;8.75;5.03;;;15.00;99.90;;;;;;5023449;28;20054;-70
2023/08/27 06:45:00;;;;;;;7.03;4.63;;;15.00;99.90;;;;;;5019606;28;20073;-70
2023/08/27 06:47:26;;;;;;;;;;;15.10;99.90;;;;;;5028343;28;20068;-70
2023/08/27 06:49:51;;;;;;;7.13;4.03;;;15.10;99.90;;;;;;5027184;28;19916;-70
2023/08/27 06:52:20;;;;;;;6.53;4.65;;;15.10;99.90;;;;;;5028240;28;20426;-70
2023/08/27 06:54:46;;;;;;;6.50;4.50;;;15.10;99.90;;;;;;5026383;28;20407;-70
2023/08/27 06:57:11;;;;;;;8.98;6.00;;;15.20;99.90;;;;;;5028488;28;20046;-70
2023/08/27 06:59:37;;;;;;;6.55;4.45;;;15.20;99.90;;;;;;5026137;28;20069;-70
2023/08/27 07:02:03;;;;;;;9.35;5.28;;;15.30;99.90;;;;;;5040088;28;20037;-70
2023/08/27 07:04:29;;;;;;;7.32;4.60;;;15.30;99.90;;;;;;5026067;28;20130;-70
2023/08/27 07:06:55;;;;;;;8.18;5.03;;;15.30;99.90;;;;;;5026622;28;20045;-70
2023/08/27 07:09:22;;;;;;;7.50;4.85;;;15.30;99.90;;;;;;5028002;28;20128;-70
2023/08/27 07:11:48;;;;;;;8.80;5.05;;;15.40;99.90;;;;;;5026394;28;20092;-69
2023/08/27 07:14:13;;;;;;;6.82;4.38;;;15.40;99.90;;;;;;5030540;28;20075;-69
2023/08/27 07:16:39;;;;;;;9.35;5.18;;;15.30;99.90;;;;;;5027532;28;20427;-69
2023/08/27 07:19:05;;;;;;;9.73;5.65;;;15.30;99.90;;;;;;5037822;28;20038;-69
2023/08/27 07:21:31;;;;;;;10.27;5.45;;;15.40;99.90;;;;;;5025814;28;20388;-70
2023/08/27 07:23:57;;;;;;;9.43;4.97;;;15.40;99.90;;;;;;5027001;28;20060;-69
2023/08/27 07:26:23;;;;;;;6.93;4.68;;;15.40;99.90;;;;;;5027585;28;20041;-70
2023/08/27 07:28:48;;;;;;;8.32;4.97;;;15.40;99.90;;;;;;5019892;28;20056;-70
2023/08/27 07:31:14;;;;;;;6.45;4.43;;;15.40;99.90;;;;;;5023763;28;20187;-70
2023/08/27 07:33:40;;;;;;;8.75;4.88;;;15.40;99.90;;;;;;5026288;28;20482;-70
2023/08/27 07:36:05;;;;;;;8.38;4.60;;;15.40;99.90;;;;;;5088898;22;20407;-68
2023/08/27 07:38:31;;;;;;;9.82;4.80;;;15.50;99.90;;;;;;5008461;28;20502;-68
2023/08/27 07:40:57;;;;;;;6.40;4.47;;;15.60;99.90;;;;;;5011111;28;20053;-71
2023/08/27 07:43:22;;;;;;;10.30;4.32;;;15.60;99.90;;;;;;5031196;28;20030;-70
2023/08/27 07:45:48;;;;;;;7.30;4.15;;;15.60;99.90;;;;;;5002150;28;20064;-70
2023/08/27 07:48:14;;;;;;;9.57;3.80;;;15.70;99.90;;;;;;5018589;28;20133;-70
2023/08/27 07:50:40;;;;;;;5.57;3.35;;;15.70;99.90;;;;;;5009653;28;20050;-70
2023/08/27 07:53:05;;;;;;;7.00;3.78;;;15.70;99.90;;;;;;5027395;28;20057;-70
2023/08/27 07:55:34;;;;;;;4.32;3.10;;;15.80;99.90;;;;;;5020789;28;20087;-70
2023/08/27 07:58:00;;;;;;;8.50;3.65;;;15.80;99.90;;;;;;5008016;28;20137;-70
2023/08/27 08:00:26;;;;;;;7.55;3.65;;;15.90;99.90;;;;;;4982413;28;20050;-70
2023/08/27 08:02:51;;;;;;;10.68;4.22;;;15.90;99.90;;;;;;5024772;28;20038;-70
2023/08/27 08:05:17;;;;;;;6.20;2.80;;;15.90;99.90;;;;;;5026576;28;20037;-70
2023/08/27 08:07:43;;;;;;;4.90;3.08;;;15.90;99.90;;;;;;5000427;28;20121;-70
2023/08/27 08:10:09;;;;;;;10.05;2.90;;;15.90;99.90;;;;;;5022710;28;20613;-70
2023/08/27 08:12:35;;;;;;;5.95;3.17;;;16.00;99.90;;;;;;5005461;28;20038;-70
2023/08/27 08:15:00;;;;;;;4.72;2.90;;;16.10;99.90;;;;;;5001114;28;20045;-70
2023/08/27 08:17:26;;;;;;;7.82;2.95;;;16.10;99.90;;;;;;5024094;28;20051;-70
2023/08/27 08:19:52;;;;;;;5.68;2.85;;;16.20;99.90;;;;;;5006699;28;20116;-70
2023/08/27 08:22:18;;;;;;;3.80;2.63;;;16.30;99.90;;;;;;5005926;28;20041;-70
2023/08/27 08:24:43;;;;;;;5.47;2.58;;;16.30;99.90;;;;;;5020773;28;20046;-70
2023/08/27 08:27:09;;;;;;;5.10;2.65;;;16.40;99.90;;;;;;5001930;28;20077;-70
2023/08/27 08:29:35;;;;;;;6.55;2.95;;;16.50;99.90;;;;;;5008518;28;20052;-70
2023/08/27 08:32:01;;;;;;;4.40;2.53;;;16.50;99.90;;;;;;5008505;28;20075;-70
2023/08/27 08:34:27;;;;;;;4.30;2.15;;;16.60;99.90;;;;;;5019612;28;20050;-70
2023/08/27 08:36:54;;;;;;;4.22;2.30;;;16.70;99.90;;;;;;5003013;28;20045;-71
2023/08/27 08:39:19;;;;;;;3.40;2.15;;;16.80;99.90;;;;;;5000308;28;20038;-70
2023/08/27 08:42:04;;;;;;;3.50;2.47;;;16.90;99.90;;;;;;5006580;28;20460;-71
2023/08/27 08:44:52;;;;;;;3.80;2.10;;;16.90;99.90;;;;;;5020835;28;20030;-70
2023/08/27 08:47:19;;;;;;;;;;;17.00;99.90;;;;;;5021843;28;20045;-70
2023/08/27 08:49:48;;;;;;;2.58;1.52;;;17.00;99.90;;;;;;4996731;28;19916;-71
2023/08/27 08:52:18;;;;;;;4.07;1.60;;;17.00;99.90;;;;;;5020586;28;20108;-70
2023/08/27 08:54:48;;;;;;;2.65;1.35;;;17.10;99.90;;;;;;5003258;28;20041;-70
2023/08/27 08:57:15;;;;;;;1.92;1.25;;;17.10;99.90;;;;;;4999166;28;20478;-70
2023/08/27 08:59:41;;;;;;;3.25;1.70;;;17.20;99.90;;;;;;5005260;28;20044;-70
2023/08/27 09:02:10;;;;;;;;;;;17.20;99.90;;;;;;5004088;28;20033;-70
2023/08/27 09:04:36;;;;;;;1.75;1.25;;;17.20;99.90;;;;;;5022724;28;19917;-70
2023/08/27 09:07:03;;;;;;;;;;;17.20;99.90;;;;;;4975333;28;20500;-70
2023/08/27 09:09:31;;;;;;;2.00;1.10;;;17.30;99.90;;;;;;5013247;28;20358;-70
2023/08/27 09:11:59;;;;;;;3.15;1.10;;;17.30;99.90;;;;;;4997853;28;20049;-70
2023/08/27 09:14:25;;;;;;;2.83;1.10;;;17.40;99.90;;;;;;5019909;28;20036;-70
2023/08/27 09:16:51;;;;;;;1.55;0.88;;;17.50;99.90;;;;;;4982481;28;20048;-70
2023/08/27 09:19:17;;;;;;;2.20;1.08;;;17.50;99.90;;;;;;4996633;28;20040;-71
2023/08/27 09:21:43;;;;;;;1.45;0.65;;;17.60;99.90;;;;;;5007555;28;20371;-70
2023/08/27 09:24:08;;;;;;;;;;;17.70;99.90;;;;;;5012242;28;20129;-70
2023/08/27 09:26:34;;;;;;;1.30;0.60;;;17.80;99.90;;;;;;5011661;28;20401;-70
2023/08/27 09:29:01;;;;;;;2.70;0.80;;;17.70;99.90;;;;;;5006533;28;20097;-70
2023/08/27 09:31:43;;;;;;;2.10;0.85;;;17.80;99.90;;;;;;4994548;28;20053;-70
2023/08/27 09:34:09;;;;;;;1.58;0.90;;;17.80;99.90;;;;;;5008807;28;20091;-70
2023/08/27 09:36:38;;;;;;;3.13;1.13;;;17.80;99.90;;;;;;5000666;28;20073;-70
2023/08/27 09:39:13;;;;;;;2.47;1.00;;;17.90;99.90;;;;;;5002071;28;20049;-70
2023/08/27 09:41:43;;;;;;;3.22;1.02;;;18.00;99.90;;;;;;5020202;28;20052;-70
2023/08/27 09:44:10;;;;;;;1.95;1.15;;;18.10;99.90;;;;;;5011094;28;20127;-70
2023/08/27 09:46:37;;;;;;;1.60;1.10;;;18.20;99.90;;;;;;5026838;28;20467;-71
2023/08/27 09:49:07;;;;;;;2.58;1.30;;;18.20;99.90;;;;;;5019964;28;20221;-72
2023/08/27 09:51:39;;;;;;;2.20;1.17;;;18.30;99.90;;;;;;5003497;28;20575;-71
2023/08/27 09:54:22;;;;;;;3.65;1.88;;;18.30;99.90;;;;;;4995786;28;20461;-70
2023/08/27 09:56:50;;;;;;;4.55;1.42;;;18.40;99.90;;;;;;4989007;28;20087;-70
2023/08/27 09:59:17;;;;;;;3.70;1.20;;;18.40;99.90;;;;;;5005596;28;20038;-70
2023/08/27 10:01:47;;;;;;;2.58;1.10;;;18.50;99.90;;;;;;5010165;28;20133;-70
2023/08/27 10:04:13;;;;;;;2.53;1.40;;;18.70;99.90;;;;;;5009406;28;20099;-70
2023/08/27 10:06:39;;;;;;;3.20;1.63;;;18.70;99.90;;;;;;5005694;28;20471;-70
2023/08/27 10:09:05;;;;;;;2.95;1.23;;;18.70;99.90;;;;;;5006137;28;20045;-71
2023/08/27 10:11:33;;;;;;;2.63;1.20;;;18.70;99.90;;;;;;4999655;28;20162;-70
2023/08/27 10:13:59;;;;;;;3.35;1.40;;;18.80;99.90;;;;;;4990573;28;20472;-70
2023/08/27 10:16:26;;;;;;;;;;;19.00;99.90;;;;;;5017326;28;20038;-70
2023/08/27 10:18:52;;;;;;;3.53;1.25;;;19.10;99.90;;;;;;5000871;28;19932;-70
2023/08/27 10:21:18;;;;;;;;;;;19.20;99.90;;;;;;5007856;28;20045;-70
2023/08/27 10:23:44;;;;;;;3.90;1.40;;;19.00;99.90;;;;;;5008367;28;19923;-70
2023/08/27 10:26:11;;;;;;;3.97;1.20;;;18.90;99.90;;;;;;5008511;28;20141;-70
2023/08/27 10:28:38;;;;;;;2.10;1.23;;;18.90;99.90;;;;;;5025521;28;20045;-70
2023/08/27 10:31:04;;;;;;;3.03;1.20;;;18.80;99.90;;;;;;4998997;28;20053;-71
2023/08/27 10:33:30;;;;;;;4.75;1.40;;;18.80;99.90;;;;;;4998347;28;20505;-71
2023/08/27 10:35:57;;;;;;;;;;;18.80;99.90;;;;;;4986288;28;20510;-70
2023/08/27 10:38:28;;;;;;;1.60;1.20;;;18.70;99.90;;;;;;5000122;28;20332;-70
2023/08/27 10:40:54;;;;;;;4.45;1.60;;;18.70;99.90;;;;;;5012496;28;20053;-71
2023/08/27 10:43:20;;;;;;;3.25;1.45;;;18.70;99.90;;;;;;5004147;28;20072;-70
2023/08/27 10:45:48;;;;;;;2.20;1.50;;;18.70;99.90;;;;;;4994059;28;20407;-70
2023/08/27 10:48:20;;;;;;;3.17;1.38;;;18.70;99.90;;;;;;5021648;28;20460;-70
2023/08/27 10:50:55;;;;;;;3.88;2.28;;;18.80;99.90;;;;;;5003296;28;20076;-70
2023/08/27 10:53:22;;;;;;;3.85;1.40;;;19.00;99.90;;;;;;5001518;28;20045;-70
2023/08/27 10:55:50;;;;;;;2.47;1.27;;;19.20;99.90;;;;;;5010793;28;20041;-70
2023/08/27 10:58:26;;;;;;;2.97;1.33;;;19.40;99.90;;;;;;5038098;28;20077;-71
2023/08/27 11:01:12;;;;;;;3.90;1.73;;;19.70;99.90;;;;;;4990165;28;20040;-71
2023/08/27 11:03:53;;;;;;;3.20;1.75;;;19.90;99.90;;;;;;5021759;28;20052;-72
2023/08/27 11:06:20;;;;;;;1.50;0.95;;;20.00;99.90;;;;;;5008846;28;20042;-70
2023/08/27 11:08:50;;;;;;;1.77;1.13;;;19.90;99.90;;;;;;4995363;28;20038;-70
2023/08/27 11:11:16;;;;;;;3.90;1.77;;;19.90;99.90;;;;;;5023241;28;20053;-71
2023/08/27 11:13:42;;;;;;;3.60;1.75;;;19.90;99.90;;;;;;5025604;28;20037;-70
2023/08/27 11:16:15;;;;;;;3.53;2.47;;;19.70;99.90;;;;;;5006421;28;20041;-71
2023/08/27 11:18:47;;;;;;;4.38;2.38;;;19.60;99.90;;;;;;5021064;28;20526;-70
2023/08/27 11:21:45;;;;;;;2.60;1.92;;;19.50;99.90;;;;;;5026139;28;20513;-70
2023/08/27 11:24:21;;;;;;;2.40;1.50;;;19.30;99.90;;;;;;4998947;28;20500;-71
2023/08/27 11:26:48;;;;;;;2.13;0.85;;;19.10;99.90;;;;;;5005728;28;20041;-70
2023/08/27 11:29:14;;;;;;;2.53;0.60;;;18.90;99.90;;;;;;5030947;28;20060;-71
2023/08/27 11:31:45;;;;;;;1.38;0.47;;;18.60;99.90;;;;;;5020320;28;20071;-70
2023/08/27 11:34:13;;;;;;;1.85;0.40;;;18.20;99.90;;;;;;5008130;28;21681;-70
2023/08/27 11:36:40;;;;;;;1.67;0.50;;;17.90;99.90;;;;;;4978147;28;20046;-71
2023/08/27 11:39:12;;;;;;;1.13;0.40;;;17.60;99.90;;;;;;5013422;28;20117;-71
2023/08/27 11:41:39;;;;;;;0.82;0.30;;;17.40;99.90;;;;;;4990179;28;20100;-71
2023/08/27 11:44:07;;;;;;;2.67;0.30;;;17.20;99.90;;;;;;5007133;28;20050;-71
2023/08/27 11:46:34;;;;;;;1.38;0.38;;;17.00;99.90;;;;;;5023802;28;20050;-70
2023/08/27 11:49:02;;;;;;;1.35;0.57;;;16.80;99.90;;;;;;4994644;28;20041;-69
2023/08/27 11:51:28;;;;;;;1.50;0.45;;;16.60;99.90;;;;;;5009136;28;20456;-71
2023/08/27 11:53:54;;;;;;;3.70;0.68;;;16.40;99.90;;;;;;4989581;28;20037;-71
2023/08/27 11:56:20;;;;;;;1.50;0.50;;;16.30;99.90;;;;;;5008849;28;20081;-71
2023/08/27 11:58:52;;;;;;;2.05;0.80;;;16.10;99.90;;;;;;5004271;28;20393;-70
2023/08/27 12:01:19;;;;;;;2.30;0.30;;;15.90;99.90;;;;;;5002041;28;20052;-71
2023/08/27 12:03:47;;;;;;;1.98;0.40;;;15.80;99.90;;;;;;5005096;28;20048;-71
2023/08/27 12:06:19;;;;;;;1.77;0.32;;;15.70;99.90;;;;;;5017719;28;20052;-72
2023/08/27 12:08:50;;;;;;;0.32;0.20;;;15.50;99.90;;;;;;5000915;28;20045;-71
2023/08/27 12:11:18;;;;;;;2.17;0.30;;;15.40;99.90;;;;;;4978340;28;20061;-72
2023/08/27 12:13:47;;;;;;;1.25;0.30;;;15.40;99.90;;;;;;4999661;28;20064;-71
2023/08/27 12:16:16;;;;;;;1.83;0.60;;;15.40;99.90;;;;;;5002268;28;20430;-71
2023/08/27 12:18:46;;;;;;;1.75;0.47;;;15.40;99.90;;;;;;5021931;28;20146;-70
2023/08/27 12:21:13;;;;;;;0.98;0.43;;;15.40;99.90;;;;;;5009133;28;20076;-71
2023/08/27 12:23:39;;;;;;;1.10;0.50;;;15.50;99.90;;;;;;4997960;28;20115;-70
2023/08/27 12:26:04;;;;;;;2.72;0.40;;;15.40;99.90;;;;;;5012730;28;20619;-71
2023/08/27 12:28:33;;;;;;;0.60;0.40;;;15.50;99.90;;;;;;5011149;28;20504;-70
2023/08/27 12:30:59;;;;;;;3.65;0.80;;;15.70;99.90;;;;;;5017742;28;20496;-70
2023/08/27 12:33:40;;;;;;;2.40;0.63;;;16.00;99.90;;;;;;4999241;28;20038;-70
2023/08/27 12:36:07;;;;;;;1.10;0.40;;;16.40;99.90;;;;;;5009445;28;20407;-70
2023/08/27 12:38:34;;;;;;;2.17;0.60;;;16.60;99.90;;;;;;5002329;28;20033;-71
2023/08/27 12:41:00;;;;;;;1.48;0.50;;;16.90;99.90;;;;;;4997941;28;20144;-71
2023/08/27 12:43:26;;;;;;;2.42;0.57;;;17.20;99.90;;;;;;5002999;28;20045;-70
2023/08/27 12:45:52;;;;;;;1.70;0.45;;;17.30;99.90;;;;;;4998629;28;20366;-72
2023/08/27 12:48:18;;;;;;;3.22;0.38;;;17.30;99.90;;;;;;5011198;28;20048;-71
2023/08/27 12:50:44;;;;;;;1.95;0.40;;;17.30;99.90;;;;;;5004775;28;20102;-73